HOURLY OBS INDEX

010

Great Southern & Central Wheat Belt

BONNIE ROCK AG STATION

Site: 010GBR
Alt: 353 m
68km ENE of BENCUBBIN


  Time     Wind        Temp  DP   Baro     Rain since   Rain past  Vis(m), Cloud(base in m), Weather
  local        km/h                         9am  last   hr   10m    
Wed 14:00    S  7/ 17  22.2  3.0  ------    0.0   0.0   0.0   0.0   ----- 
Wed 14:30    S  6/ 17  22.2  3.7  ------    0.0   0.0   0.0   0.0   ----- 
Wed 15:00    S  9/ 19  22.2  3.3  ------    0.0   0.0   0.0   0.0   ----- 
Wed 15:30  SSE  7/ 20  21.6  3.3  ------    0.0   0.0   0.0   0.0   ----- 
Wed 16:00    S  9/ 17  22.0  3.4  ------    0.0   0.0   0.0   0.0   ----- 
Wed 16:30    S  6/ 19  21.8  3.4  ------    0.0   0.0   0.0   0.0   ----- 
Wed 17:00    S  7/ 15  21.4  3.7  ------    0.0   0.0   0.0   0.0   ----- 
Wed 17:30  SSE  6/ 13  20.0  3.8  ------    0.0   0.0   0.0   0.0   ----- 
Wed 18:00  SSE  6/  9  17.6  3.8  ------    0.0   0.0   0.0   0.0   ----- 
Wed 18:30  ESE  2/  6  16.0  3.6  ------    0.0   0.0   0.0   0.0   ----- 
Wed 19:00    C  0/  4  14.4  3.2  ------    0.0   0.0   0.0   0.0   ----- 

BROOKTON AG STATION

Site: 010RKT
Alt: 250m
2km S of BROOKTON


  Time     Wind        Temp  DP   Baro     Rain since   Rain past  Vis(m), Cloud(base in m), Weather
  local        km/h                         9am  last   hr   10m    
Wed 14:00  WSW  4/  9  19.1  9.1  ------    0.0   0.0   0.0   0.0   ----- 
Wed 14:30   SW  4/  9  19.2  7.5  ------    0.0   0.0   0.0   0.0   ----- 
Wed 15:00  WSW  4/  9  19.9  7.8  ------    0.0   0.0   0.0   0.0   ----- 
Wed 15:00  WSW  4/  9  19.9  7.8  ------    0.0   0.0  ----   0.0   ----- 
Wed 15:30    S  4/  9  20.1  7.6  ------    0.0   0.0   0.0   0.0   ----- 
Wed 16:00  SSW  4/ 11  19.7  7.6  ------    0.0   0.0   0.0   0.0   ----- 
Wed 16:00  SSW  4/ 11  19.7  7.6  ------    0.0   0.0  ----   0.0   ----- 
Wed 16:30  SSW  4/  9  19.1  7.4  ------    0.0   0.0   0.0   0.0   ----- 
Wed 17:00  SSW  6/  7  18.4  8.0  ------    0.0   0.0   0.0   0.0   ----- 
Wed 17:00  SSW  6/  7  18.4  8.0  ------    0.0   0.0  ----   0.0   ----- 
Wed 17:30   SW  2/  6  17.1  8.6  ------    0.0   0.0   0.0   0.0   ----- 
Wed 18:00  WSW  2/  4  15.7  7.4  ------    0.0   0.0   0.0   0.0   ----- 
Wed 18:00  WSW  2/  4  15.7  7.4  ------    0.0   0.0  ----   0.0   ----- 
Wed 18:30   SW  4/  4  15.2  6.4  ------    0.0   0.0   0.0   0.0   ----- 
Wed 19:00  WSW  4/  6  14.4  6.4  ------    0.0   0.0   0.0   0.0   ----- 

BURRACOPPIN SOUTH AG STATION

Site: 010CNS
Alt: 420m
72km SW of SOUTHERN CROSS


  Time     Wind        Temp  DP   Baro     Rain since   Rain past  Vis(m), Cloud(base in m), Weather
  local        km/h                         9am  last   hr   10m    
Wed 14:00    S  7/ 15  19.2  6.0  ------    0.0   0.0   0.0   0.0   ----- 
Wed 14:30    S  6/ 17  19.8  5.3  ------    0.0   0.0   0.0   0.0   ----- 
Wed 15:00  SSE  6/ 15  20.7  5.4  ------    0.0   0.0   0.0   0.0   ----- 
Wed 15:00  SSE  6/ 15  20.7  5.4  ------    0.0   0.0  ----   0.0   ----- 
Wed 15:30    S  6/ 15  20.4  4.9  ------    0.0   0.0   0.0   0.0   ----- 
Wed 16:00   SE  7/ 15  19.8  4.5  ------    0.0   0.0   0.0   0.0   ----- 
Wed 16:00   SE  7/ 15  19.8  4.5  ------    0.0   0.0  ----   0.0   ----- 
Wed 16:30  SSE  6/ 11  19.9  4.7  ------    0.0   0.0   0.0   0.0   ----- 
Wed 17:00  SSE  7/ 17  19.2  4.6  ------    0.0   0.0   0.0   0.0   ----- 
Wed 17:00  SSE  7/ 17  19.2  4.6  ------    0.0   0.0  ----   0.0   ----- 
Wed 17:30    S  6/ 11  18.1  4.9  ------    0.0   0.0   0.0   0.0   ----- 
Wed 18:00    S  2/  6  15.2  5.0  ------    0.0   0.0   0.0   0.0   ----- 
Wed 18:00    S  2/  6  15.2  5.0  ------    0.0   0.0  ----   0.0   ----- 
Wed 18:30  SSE  4/  7  13.5  5.4  ------    0.0   0.0   0.0   0.0   ----- 
Wed 19:00   SE  4/  7  12.8  5.4  ------    0.0   0.0   0.0   0.0   ----- 

CUNDERDIN AIRFIELD

Site: 010286
Alt: 216.7m
53km E of NORTHAM


  Time     Wind        Temp  DP   Baro     Rain since   Rain past  Vis(m), Cloud(base in m), Weather
  local        km/h                         9am  last   hr   10m    
Wed 14:00  SSW  7/ 17  20.6  6.9  1025.9    0.0   0.0   0.0   0.0   10000 
Wed 14:30   SW  7/ 15  20.8  5.6  1025.5    0.0   0.0   0.0   0.0   10000 
Wed 15:00    S  9/ 17  20.9  4.5  1025.2    0.0   0.0   0.0   0.0   10000 
Wed 15:30    S  9/ 15  20.6  3.8  1025.0    0.0   0.0   0.0   0.0   10000 
Wed 16:00    S  7/ 20  20.9  5.3  1024.9    0.0   0.0   0.0   0.0   10000 
Wed 16:30    S 13/ 24  20.3  4.8  1025.0    0.0   0.0   0.0   0.0   10000 
Wed 17:00    S  9/ 17  19.9  4.0  1025.1    0.0   0.0   0.0   0.0   10000 
Wed 17:30   SE 11/ 15  19.0  3.2  1025.2    0.0   0.0   0.0   0.0   10000 
Wed 18:00  SSE  9/ 11  16.7  4.7  1025.3    0.0   0.0   0.0   0.0   10000 
Wed 18:30    S  6/  9  15.5  5.4  1025.5    0.0   0.0   0.0   0.0   10000 
Wed 19:00    S  6/  9  14.0  7.5  1025.6    0.0   0.0   0.0   0.0   10000 

DARKAN AG STATION

Site: 010RKN
Alt: 255m
48km W of WAGIN


  Time     Wind        Temp  DP   Baro     Rain since   Rain past  Vis(m), Cloud(base in m), Weather
  local        km/h                         9am  last   hr   10m    
Wed 14:00    W  2/  6  16.5  9.2  ------    0.0   0.0   0.0   0.0   ----- 
Wed 14:30    C  0/  6  17.7  9.7  ------    0.0   0.0   0.0   0.0   ----- 
Wed 15:00    N  2/  7  17.7  9.5  ------    0.0   0.0   0.0   0.0   ----- 
Wed 15:30    S  2/  7  18.7  8.8  ------    0.0   0.0   0.0   0.0   ----- 
Wed 16:00    C  0/  4  18.9  9.6  ------    0.0   0.0   0.0   0.0   ----- 
Wed 16:30    C  0/  4  19.2  9.2  ------    0.0   0.0   0.0   0.0   ----- 
Wed 17:00  ESE  2/  6  18.0  9.3  ------    0.0   0.0   0.0   0.0   ----- 
Wed 17:30    E  2/  4  17.2  8.8  ------    0.0   0.0   0.0   0.0   ----- 
Wed 18:00    C  0/  2  16.1  8.8  ------    0.0   0.0   0.0   0.0   ----- 
Wed 18:30  ESE  2/  4  14.2  9.3  ------    0.0   0.0   0.0   0.0   ----- 
Wed 19:00  NNE  2/  6  11.8  8.3  ------    0.0   0.0   0.0   0.0   ----- 

DRAGON ROCKS AG STATION

Site: 010RGR
Alt: 390m
48km SSE of HAYDN


  Time     Wind        Temp  DP   Baro     Rain since   Rain past  Vis(m), Cloud(base in m), Weather
  local        km/h                         9am  last   hr   10m    
Wed 14:00    W  6/ 13  16.9  7.2  ------    0.0   0.0   0.0   0.0   ----- 
Wed 14:30   SW  4/ 11  17.8  7.7  ------    0.0   0.0   0.0   0.0   ----- 
Wed 15:00  SSE  2/ 13  18.6  7.3  ------    0.0   0.0   0.0   0.0   ----- 
Wed 15:30    N  4/ 13  18.5  6.9  ------    0.0   0.0   0.0   0.0   ----- 
Wed 16:00  WSW  6/ 13  18.1  6.9  ------    0.0   0.0   0.0   0.0   ----- 
Wed 16:30    W  2/ 13  18.6  7.1  ------    0.0   0.0   0.0   0.0   ----- 
Wed 17:00  SSE  2/  7  18.7  6.8  ------    0.0   0.0   0.0   0.0   ----- 
Wed 17:30    C  0/  4  17.1  7.6  ------    0.0   0.0   0.0   0.0   ----- 
Wed 18:00    C  0/  2  14.4  6.7  ------    0.0   0.0   0.0   0.0   ----- 
Wed 18:30    C  0/  2  12.2  6.1  ------    0.0   0.0   0.0   0.0   ----- 
Wed 19:00    C  0/  4  12.2  6.2  ------    0.0   0.0   0.0   0.0   ----- 

DUMBLEYUNG AG STATION

Site: 010BLA
Alt: 270m
38km E of WAGIN


  Time     Wind        Temp  DP   Baro     Rain since   Rain past  Vis(m), Cloud(base in m), Weather
  local        km/h                         9am  last   hr   10m    
Wed 14:00   SW  7/ 17  17.9  5.9  ------    0.0   0.0   0.0   0.0   ----- 
Wed 14:30   SW  6/ 13  18.5  6.2  ------    0.0   0.0   0.0   0.0   ----- 
Wed 15:00  WSW  6/ 15  18.8  6.0  ------    0.0   0.0   0.0   0.0   ----- 
Wed 15:30   SW  6/ 13  18.9  5.9  ------    0.0   0.0   0.0   0.0   ----- 
Wed 16:00   SW  6/ 11  19.3  6.4  ------    0.0   0.0   0.0   0.0   ----- 
Wed 16:30   SW  6/  9  19.0  5.8  ------    0.0   0.0   0.0   0.0   ----- 
Wed 17:00  WSW  4/  7  18.9  6.6  ------    0.0   0.0   0.0   0.0   ----- 
Wed 17:30    W  2/  7  17.5  7.2  ------    0.0   0.0   0.0   0.0   ----- 
Wed 18:00    C  0/  0  14.7  6.8  ------    0.0   0.0   0.0   0.0   ----- 
Wed 18:30    C  0/  2  11.9  5.9  ------    0.0   0.0   0.0   0.0   ----- 
Wed 19:00  ENE  2/  4   9.4  5.3  ------    0.0   0.0   0.0   0.0   ----- 

EAST BEVERLEY AG STATION

Site: 010GEB
Alt: 225 m
23km ENE of BEVERLEY


  Time     Wind        Temp  DP   Baro     Rain since   Rain past  Vis(m), Cloud(base in m), Weather
  local        km/h                         9am  last   hr   10m    
Wed 14:00   SW  4/  9  18.8  6.3  ------    0.2   0.0   0.0   0.0   ----- 
Wed 14:30  WSW  6/ 11  19.4  5.9  ------    0.2   0.0   0.0   0.0   ----- 
Wed 15:00    S  4/ 11  20.0  4.6  ------    0.2   0.0   0.0   0.0   ----- 
Wed 15:00    S  4/ 11  20.0  4.6  ------    0.2   0.0  ----   0.0   ----- 
Wed 15:30    S  4/ 15  20.1  6.1  ------    0.2   0.0   0.0   0.0   ----- 
Wed 16:00    S  6/ 13  20.2  5.2  ------    0.2   0.0   0.0   0.0   ----- 
Wed 16:00    S  6/ 13  20.2  5.2  ------    0.2   0.0  ----   0.0   ----- 
Wed 16:30    S  6/ 15  20.4  5.2  ------    0.2   0.0   0.0   0.0   ----- 
Wed 17:00    S  4/  7  20.0  6.0  ------    0.2   0.0   0.0   0.0   ----- 
Wed 17:00    S  4/  7  20.0  6.0  ------    0.2   0.0  ----   0.0   ----- 
Wed 17:30    S  2/  6  19.1  6.9  ------    0.2   0.0   0.0   0.0   ----- 
Wed 18:00    W  2/  4  15.9  6.4  ------    0.2   0.0   0.0   0.0   ----- 
Wed 18:00    W  2/  4  15.9  6.4  ------    0.2   0.0  ----   0.0   ----- 
Wed 18:26  WNW  4/  6  10.8  5.4  ------    0.2   0.0  ----   0.0   ----- 
Wed 19:00    W  2/  4   9.5  5.4  ------    0.2   0.0   0.0   0.0   ----- 

EJANDING AG STATION

Site: 010NDG
Alt: 290m
42km ESE of WONGAN HILLS


  Time     Wind        Temp  DP   Baro     Rain since   Rain past  Vis(m), Cloud(base in m), Weather
  local        km/h                         9am  last   hr   10m    
Wed 14:00    S  9/ 17  20.5  5.9  ------    0.0   0.0   0.0   0.0   ----- 
Wed 14:30  SSE  9/ 19  20.7  5.2  ------    0.0   0.0   0.0   0.0   ----- 
Wed 15:00  SSE  9/ 19  21.0  4.8  ------    0.0   0.0   0.0   0.0   ----- 
Wed 15:30  SSE  6/ 15  21.4  4.6  ------    0.0   0.0   0.0   0.0   ----- 
Wed 16:00    S  9/ 17  21.3  4.6  ------    0.0   0.0   0.0   0.0   ----- 
Wed 16:30    S  9/ 17  20.9  4.4  ------    0.0   0.0   0.0   0.0   ----- 
Wed 17:00    S  9/ 13  20.5  4.2  ------    0.0   0.0   0.0   0.0   ----- 
Wed 17:30    S  6/ 11  19.3  4.0  ------    0.0   0.0   0.0   0.0   ----- 
Wed 18:00    S  4/  7  16.5  5.1  ------    0.0   0.0   0.0   0.0   ----- 
Wed 18:30    S  2/  4  13.8  5.7  ------    0.0   0.0   0.0   0.0   ----- 
Wed 19:00    S  2/  4  12.9  6.0  ------    0.0   0.0   0.0   0.0   ----- 

GAIRDNER AG STATION

Site: 010DNR
Alt: 80m
137km NE of ALBANY


  Time     Wind        Temp  DP   Baro     Rain since   Rain past  Vis(m), Cloud(base in m), Weather
  local        km/h                         9am  last   hr   10m    
Wed 14:00  SSW  9/ 20  19.1  9.1  ------    0.0   0.0   0.0   0.0   ----- 
Wed 14:30    S 13/ 24  18.9 11.2  ------    0.0   0.0   0.0   0.0   ----- 
Wed 15:00    S 13/ 20  17.9 11.0  ------    0.0   0.0   0.0   0.0   ----- 
Wed 15:00    S 13/ 20  17.9 11.0  ------    0.0   0.0  ----   0.0   ----- 
Wed 15:30    S 13/ 20  17.2 10.4  ------    0.0   0.0   0.0   0.0   ----- 
Wed 16:00    S 11/ 19  17.2 10.4  ------    0.0   0.0   0.0   0.0   ----- 
Wed 16:00    S 11/ 19  17.2 10.4  ------    0.0   0.0  ----   0.0   ----- 
Wed 16:30    S 13/ 19  16.2 10.2  ------    0.0   0.0   0.0   0.0   ----- 
Wed 17:00    S 13/ 20  15.1  9.8  ------    0.0   0.0   0.0   0.0   ----- 
Wed 17:00    S 13/ 20  15.1  9.8  ------    0.0   0.0  ----   0.0   ----- 
Wed 17:30    S  9/ 17  14.1  9.6  ------    0.0   0.0   0.0   0.0   ----- 
Wed 18:00    E  4/  7  12.0  9.0  ------    0.0   0.0   0.0   0.0   ----- 
Wed 18:00    E  4/  7  12.0  9.0  ------    0.0   0.0  ----   0.0   ----- 
Wed 18:30    E  2/  6  10.6  8.3  ------    0.0   0.0   0.0   0.0   ----- 
Wed 19:00  NNE  2/  4   9.0  7.2  ------    0.0   0.0   0.0   0.0   ----- 

HOLT ROCK AG STATION

Site: 010GHR
Alt: 361.0m
73km NE of NEWDEGATE


  Time     Wind        Temp  DP   Baro     Rain since   Rain past  Vis(m), Cloud(base in m), Weather
  local        km/h                         9am  last   hr   10m    
Wed 14:00    S  4/ 13  18.7  5.8  ------    0.0   0.0   0.0   0.0   ----- 
Wed 14:30    S  7/ 15  19.2  5.9  ------    0.0   0.0   0.0   0.0   ----- 
Wed 15:00  WSW  6/ 17  19.3  6.0  ------    0.0   0.0   0.0   0.0   ----- 
Wed 15:30   SE  6/ 15  19.7  5.9  ------    0.0   0.0   0.0   0.0   ----- 
Wed 16:00  WSW  6/ 17  19.4  6.0  ------    0.0   0.0   0.0   0.0   ----- 
Wed 16:30  SSW  4/ 11  19.8  6.0  ------    0.0   0.0   0.0   0.0   ----- 
Wed 17:00  SSW  4/  7  19.0  6.1  ------    0.0   0.0   0.0   0.0   ----- 
Wed 17:30  SSW  2/  6  17.7  7.0  ------    0.0   0.0   0.0   0.0   ----- 
Wed 18:00  SSW  2/  4  15.8  6.8  ------    0.0   0.0   0.0   0.0   ----- 
Wed 18:30  SSE  2/  4  14.0  5.9  ------    0.0   0.0   0.0   0.0   ----- 
Wed 19:00    S  2/  4  13.5  6.1  ------    0.0   0.0   0.0   0.0   ----- 

HYDEN AG STATION

Site: 010YDN
Alt: 305m
2km NW of HAYDN


  Time     Wind        Temp  DP   Baro     Rain since   Rain past  Vis(m), Cloud(base in m), Weather
  local        km/h                         9am  last   hr   10m    
Wed 14:00   SE  6/ 13  17.5  6.0  ------    0.0   0.0   0.0   0.0   ----- 
Wed 14:30   SE  6/ 15  18.3  5.9  ------    0.0   0.0   0.0   0.0   ----- 
Wed 15:00   SE  7/ 17  18.5  5.6  ------    0.0   0.0   0.0   0.0   ----- 
Wed 15:30   SE  7/ 17  18.8  5.6  ------    0.0   0.0   0.0   0.0   ----- 
Wed 16:00  SSE  6/ 13  19.3  5.2  ------    0.0   0.0   0.0   0.0   ----- 
Wed 16:30  SSE  6/ 15  18.9  6.2  ------    0.0   0.0   0.0   0.0   ----- 
Wed 17:00    S  2/  7  18.8  6.4  ------    0.0   0.0   0.0   0.0   ----- 
Wed 17:30    S  4/  7  17.6  6.2  ------    0.0   0.0   0.0   0.0   ----- 
Wed 18:00  SSW  4/  7  14.3  6.0  ------    0.0   0.0   0.0   0.0   ----- 
Wed 18:30   SW  4/  7  12.3  5.5  ------    0.0   0.0   0.0   0.0   ----- 
Wed 19:00  SSW  4/  7  10.0  4.5  ------    0.0   0.0   0.0   0.0   ----- 

JACUP

Site: 010905
Alt: 305.0m
93km WSW of RAVENSTHORPE


  Time     Wind        Temp  DP   Baro     Rain since   Rain past  Vis(m), Cloud(base in m), Weather
  local        km/h                         9am  last   hr   10m    
Wed 14:00  WNW  7/ 15  18.3  6.5  1025.4    0.0   0.0   0.0   0.0   ----- 
Wed 14:30  WSW  7/ 15  19.2  6.3  1025.1    0.0   0.0   0.0   0.0   ----- 
Wed 15:00    W  7/ 13  19.5  5.9  1024.8    0.0   0.0   0.0   0.0   ----- 
Wed 15:30  WSW  9/ 15  20.2  4.7  1024.7    0.0   0.0   0.0   0.0   ----- 
Wed 16:00   SW 11/ 19  19.9  4.4  1024.7    0.0   0.0   0.0   0.0   ----- 
Wed 16:30  WSW 11/ 15  19.8  3.9  1024.5    0.0   0.0   0.0   0.0   ----- 
Wed 17:00   SW  7/ 13  19.1  4.1  1024.6    0.0   0.0   0.0   0.0   ----- 
Wed 17:30  ESE 17/ 24  15.7  8.0  1025.0    0.0   0.0   0.0   0.0   ----- 
Wed 18:00  ESE 15/ 22  13.9  8.5  1025.4    0.0   0.0   0.0   0.0   ----- 
Wed 18:30  ESE 13/ 17  12.3  8.4  1025.9    0.0   0.0   0.0   0.0   ----- 
Wed 19:00  ESE 11/ 17  11.3  8.3  1026.3    0.0   0.0   0.0   0.0   ----- 

JERRAMUNGUP AG STATION

Site: 010GJE
Alt: m
km of


  Time     Wind        Temp  DP   Baro     Rain since   Rain past  Vis(m), Cloud(base in m), Weather
  local        km/h                         9am  last   hr   10m    
Wed 14:00    S  6/ 17  18.3  5.7  ------    0.0   0.0   0.0   0.0   ----- 
Wed 14:30  SSW  4/ 15  18.4  5.0  ------    0.0   0.0   0.0   0.0   ----- 
Wed 15:00   SW  6/ 15  19.4  5.2  ------    0.0   0.0   0.0   0.0   ----- 
Wed 15:30    W  7/ 19  19.2  4.9  ------    0.0   0.0   0.0   0.0   ----- 
Wed 16:00  SSW  4/ 11  19.6  4.7  ------    0.0   0.0   0.0   0.0   ----- 
Wed 16:30    W  6/ 13  19.4  4.7  ------    0.0   0.0   0.0   0.0   ----- 
Wed 17:00    W  2/  7  18.8  5.1  ------    0.0   0.0   0.0   0.0   ----- 
Wed 17:30    W  4/  7  16.6  6.2  ------    0.0   0.0   0.0   0.0   ----- 
Wed 18:00  WSW  6/ 19  14.0  6.5  ------    0.0   0.0   0.0   0.0   ----- 
Wed 18:30   SE  9/ 15  13.0  7.9  ------    0.0   0.0   0.0   0.0   ----- 
Wed 19:00  SSE  6/  7  10.5  7.1  ------    0.0   0.0   0.0   0.0   ----- 

KALANNIE AG STATION

Site: 010GKL
Alt: 305.0m
73km NE of WONGAN HILLS


  Time     Wind        Temp  DP   Baro     Rain since   Rain past  Vis(m), Cloud(base in m), Weather
  local        km/h                         9am  last   hr   10m    
Wed 14:00   SE  6/ 17  21.7  4.6  ------    0.0   0.0   0.0   0.0   ----- 
Wed 14:30  SSE 13/ 24  21.9  4.7  ------    0.0   0.0   0.0   0.0   ----- 
Wed 15:00   SE 13/ 26  22.1  4.4  ------    0.0   0.0   0.0   0.0   ----- 
Wed 15:00   SE 13/ 26  22.1  4.4  ------    0.0   0.0  ----   0.0   ----- 
Wed 15:30  SSE 15/ 26  22.1  4.9  ------    0.0   0.0   0.0   0.0   ----- 
Wed 16:00    S  9/ 17  22.6  5.2  ------    0.0   0.0   0.0   0.0   ----- 
Wed 16:00    S  9/ 17  22.6  5.2  ------    0.0   0.0  ----   0.0   ----- 
Wed 16:30  SSE 11/ 17  22.2  3.9  ------    0.0   0.0   0.0   0.0   ----- 
Wed 17:00   SE 13/ 20  21.4  4.2  ------    0.0   0.0   0.0   0.0   ----- 
Wed 17:00   SE 13/ 20  21.4  4.2  ------    0.0   0.0  ----   0.0   ----- 
Wed 17:30  SSE 11/ 17  20.7  4.2  ------    0.0   0.0   0.0   0.0   ----- 
Wed 18:00    S  4/  7  17.6  5.6  ------    0.0   0.0   0.0   0.0   ----- 
Wed 18:00    S  4/  7  17.6  5.6  ------    0.0   0.0  ----   0.0   ----- 
Wed 18:30    S  6/  7  15.2  5.7  ------    0.0   0.0   0.0   0.0   ----- 
Wed 19:00  SSW  6/  7  14.1  6.1  ------    0.0   0.0   0.0   0.0   ----- 

KATANNING

Site: 010916
Alt: 320.0m
5km E of KATANNING


  Time     Wind        Temp  DP   Baro     Rain since   Rain past  Vis(m), Cloud(base in m), Weather
  local        km/h                         9am  last   hr   10m    
Wed 14:00  WNW  4/ 13  16.3  7.3  1026.0    0.0   0.0   0.0   0.0   ----- 
Wed 14:30    W  9/ 15  17.1  7.2  1025.7    0.0   0.0   0.0   0.0   ----- 
Wed 15:00    W  7/ 11  17.5  7.8  1025.4    0.0   0.0   0.0   0.0   ----- 
Wed 15:30  SSW  7/ 11  17.7  7.7  1025.3    0.0   0.0   0.0   0.0   ----- 
Wed 16:00   SW  7/ 13  17.5  5.4  1025.2    0.0   0.0   0.0   0.0   ----- 
Wed 16:30   SW  9/ 13  17.3  5.9  1025.2    0.0   0.0   0.0   0.0   ----- 
Wed 17:00  SSW 11/ 13  16.7  6.2  1025.3    0.0   0.0   0.0   0.0   ----- 
Wed 17:30   SW  6/  9  15.8  6.5  1025.6    0.0   0.0   0.0   0.0   ----- 
Wed 18:00   SW  7/  9  14.2  6.6  1025.8    0.0   0.0   0.0   0.0   ----- 
Wed 18:30  WSW  7/  7  14.3  6.6  1025.9    0.0   0.0   0.0   0.0   ----- 
Wed 19:00  WSW  7/  7  14.1  6.7  1026.1    0.0   0.0   0.0   0.0   ----- 

KATANNING AG STATION

Site: 010GKA
Alt: m
km of


  Time     Wind        Temp  DP   Baro     Rain since   Rain past  Vis(m), Cloud(base in m), Weather
  local        km/h                         9am  last   hr   10m    
Wed 14:00    W  6/ 13  16.6  9.1  ------    0.0   0.0   0.0   0.0   ----- 
Wed 14:30    W  6/ 15  17.5  8.5  ------    0.0   0.0   0.0   0.0   ----- 
Wed 15:00    W  4/ 11  17.7  8.1  ------    0.0   0.0   0.0   0.0   ----- 
Wed 15:30  WSW  4/  9  18.8  7.8  ------    0.0   0.0   0.0   0.0   ----- 
Wed 16:00   SW  6/ 15  18.5  6.9  ------    0.0   0.0   0.0   0.0   ----- 
Wed 16:30  WSW  6/ 11  18.2  6.6  ------    0.0   0.0   0.0   0.0   ----- 
Wed 17:00   SW  6/ 11  18.0  7.1  ------    0.0   0.0   0.0   0.0   ----- 
Wed 17:30  SSW  4/  7  17.1  6.6  ------    0.0   0.0   0.0   0.0   ----- 
Wed 18:00  WSW  2/  4  14.1  7.7  ------    0.0   0.0   0.0   0.0   ----- 
Wed 18:30    W  4/  6  12.4  8.2  ------    0.0   0.0   0.0   0.0   ----- 
Wed 19:00    W  2/  4  11.3  7.9  ------    0.0   0.0   0.0   0.0   ----- 

KELLERBERRIN AG STATION

Site: 010LRB
Alt: 250m
2km N of KELLERBERRIN


  Time     Wind        Temp  DP   Baro     Rain since   Rain past  Vis(m), Cloud(base in m), Weather
  local        km/h                         9am  last   hr   10m    
Wed 14:00  SSW  6/ 15  19.8  4.1  ------    0.0   0.0   0.0   0.0   ----- 
Wed 14:30    S  7/ 17  21.0  5.3  ------    0.0   0.0   0.0   0.0   ----- 
Wed 15:00    S  6/ 13  20.7  4.3  ------    0.0   0.0   0.0   0.0   ----- 
Wed 15:30  SSW  7/ 13  21.2  4.8  ------    0.0   0.0   0.0   0.0   ----- 
Wed 16:00  SSE  4/ 11  21.3  4.0  ------    0.0   0.0   0.0   0.0   ----- 
Wed 16:30    S  6/ 11  21.1  3.5  ------    0.0   0.0   0.0   0.0   ----- 
Wed 17:00   SE  4/  9  20.3  4.1  ------    0.0   0.0   0.0   0.0   ----- 
Wed 17:30   SE  4/  7  19.1  4.0  ------    0.0   0.0   0.0   0.0   ----- 
Wed 18:00   SE  2/  7  16.6  4.4  ------    0.0   0.0   0.0   0.0   ----- 
Wed 18:30   SE  2/  6  15.0  4.6  ------    0.0   0.0   0.0   0.0   ----- 
Wed 19:00    C  0/  4  12.9  4.5  ------    0.0   0.0   0.0   0.0   ----- 

KONDININ AG STATION

Site: 010DNA
Alt: 270m
39km ESE of CORRIGIN


  Time     Wind        Temp  DP   Baro     Rain since   Rain past  Vis(m), Cloud(base in m), Weather
  local        km/h                         9am  last   hr   10m    
Wed 14:00   SW  4/ 11  18.6  6.3  ------    0.0   0.0   0.0   0.0   ----- 
Wed 14:30    E  2/ 11  17.7  5.6  ------    0.0   0.0   0.0   0.0   ----- 
Wed 15:00  SSE  4/ 13  19.3  5.9  ------    0.0   0.0   0.0   0.0   ----- 
Wed 15:30    C  0/ 11  19.0  5.8  ------    0.0   0.0   0.0   0.0   ----- 
Wed 16:00   SE  6/ 13  19.1  5.5  ------    0.0   0.0   0.0   0.0   ----- 
Wed 16:30  SSE  4/ 13  19.3  4.6  ------    0.0   0.0   0.0   0.0   ----- 
Wed 17:00    S  4/  9  19.1  4.8  ------    0.0   0.0   0.0   0.0   ----- 
Wed 17:30  ESE  4/  7  18.1  5.0  ------    0.0   0.0   0.0   0.0   ----- 
Wed 18:00    C  0/  4  16.8  5.5  ------    0.0   0.0   0.0   0.0   ----- 
Wed 18:30    C  0/  4  14.6  5.8  ------    0.0   0.0   0.0   0.0   ----- 
Wed 19:00    E  4/  7  13.9  5.3  ------    0.0   0.0   0.0   0.0   ----- 

KOORDA AG STATION

Site: 010RDA
Alt: 310m
74km E of WONGAN HILLS


  Time     Wind        Temp  DP   Baro     Rain since   Rain past  Vis(m), Cloud(base in m), Weather
  local        km/h                         9am  last   hr   10m    
Wed 14:00  SSW  9/ 15  21.0  5.2  ------    0.0   0.0   0.0   0.0   ----- 
Wed 14:30    S  9/ 26  21.5  4.7  ------    0.0   0.0   0.0   0.0   ----- 
Wed 15:00  SSE  9/ 19  21.5  4.5  ------    0.0   0.0   0.0   0.0   ----- 
Wed 15:00  SSE  9/ 19  21.5  4.5  ------    0.0   0.0  ----   0.0   ----- 
Wed 15:30   SE  7/ 17  21.7  3.9  ------    0.0   0.0   0.0   0.0   ----- 
Wed 16:00   SW  4/ 13  21.8  4.3  ------    0.0   0.0   0.0   0.0   ----- 
Wed 16:00   SW  4/ 13  21.8  4.3  ------    0.0   0.0  ----   0.0   ----- 
Wed 16:30    S  7/ 17  21.6  3.7  ------    0.0   0.0   0.0   0.0   ----- 
Wed 17:00  SSE  6/ 13  21.1  4.1  ------    0.0   0.0   0.0   0.0   ----- 
Wed 17:00  SSE  6/ 13  21.1  4.1  ------    0.0   0.0  ----   0.0   ----- 
Wed 17:30    S  6/ 11  20.3  4.3  ------    0.0   0.0   0.0   0.0   ----- 
Wed 18:00  SSE  4/  7  17.6  3.9  ------    0.0   0.0   0.0   0.0   ----- 
Wed 18:30   SE  4/  6  14.7  4.4  ------    0.0   0.0   0.0   0.0   ----- 
Wed 19:00  SSE  4/  6  13.4  4.5  ------    0.0   0.0   0.0   0.0   ----- 

LAKE GRACE

Site: 010911
Alt: 286.0m
0.0km E of LAKE GRACE


  Time     Wind        Temp  DP   Baro     Rain since   Rain past  Vis(m), Cloud(base in m), Weather
  local        km/h                         9am  last   hr   10m    
Wed 14:00  SSW 11/ 17  17.8  6.0  1025.8    0.0   0.0   0.0   0.0   ----- 
Wed 14:30    S  7/ 15  17.8  5.4  1025.5    0.0   0.0   0.0   0.0   ----- 
Wed 15:00  SSE  9/ 15  18.4  5.6  1025.3    0.0   0.0   0.0   0.0   ----- 
Wed 15:30    S  9/ 15  19.0  5.1  1025.0    0.0   0.0   0.0   0.0   ----- 
Wed 16:00  SSW  9/ 17  19.1  4.8  1025.0    0.0   0.0   0.0   0.0   ----- 
Wed 16:30  SSW  7/ 15  19.3  4.3  1025.0    0.0   0.0   0.0   0.0   ----- 
Wed 17:00   SW  7/ 13  19.2  4.6  1024.9    0.0   0.0   0.0   0.0   ----- 
Wed 17:30  SSW  7/ 11  18.6  4.8  1025.0    0.0   0.0   0.0   0.0   ----- 
Wed 18:00    C  0/  0  17.4  4.7  1025.2    0.0   0.0   0.0   0.0   ----- 
Wed 18:30    C  0/  0  15.5  4.8  1025.5    0.0   0.0   0.0   0.0   ----- 
Wed 19:00    C  0/  0  13.8  4.9  1025.6    0.0   0.0   0.0   0.0   ----- 

LAKE KING AG STATION

Site: 010GLK
Alt: 334.0m
12km ENE of LAKE KING


  Time     Wind        Temp  DP   Baro     Rain since   Rain past  Vis(m), Cloud(base in m), Weather
  local        km/h                         9am  last   hr   10m    
Wed 14:00  WSW  6/ 19  18.2  6.5  ------    0.0   0.0   0.0   0.0   ----- 
Wed 14:30  WSW  6/ 13  19.4  6.4  ------    0.0   0.0   0.0   0.0   ----- 
Wed 15:00    W  4/ 15  20.2  6.3  ------    0.0   0.0   0.0   0.0   ----- 
Wed 15:30  WSW  6/ 13  20.0  6.0  ------    0.0   0.0   0.0   0.0   ----- 
Wed 16:00   SE  2/  6  20.0  5.7  ------    0.0   0.0   0.0   0.0   ----- 
Wed 16:30   SE  4/ 13  19.6  5.9  ------    0.0   0.0   0.0   0.0   ----- 
Wed 17:00  SSW  4/  9  19.5  5.7  ------    0.0   0.0   0.0   0.0   ----- 
Wed 17:30  SSW  2/  6  18.1  6.4  ------    0.0   0.0   0.0   0.0   ----- 
Wed 18:00    S  4/  6  13.7  6.0  ------    0.0   0.0   0.0   0.0   ----- 
Wed 18:30    S  4/  7  13.1  5.4  ------    0.0   0.0   0.0   0.0   ----- 
Wed 19:00   SE  4/  6   9.7  5.2  ------    0.0   0.0   0.0   0.0   ----- 

MAGENTA AG STATION

Site: 010AGD
Alt: 280m
67km ESE of LAKE GRACE


  Time     Wind        Temp  DP   Baro     Rain since   Rain past  Vis(m), Cloud(base in m), Weather
  local        km/h                         9am  last   hr   10m    
Wed 14:00    W  6/ 17  18.4  8.0  ------    0.0   0.0   0.0   0.0   ----- 
Wed 14:30    W  6/ 13  19.0  7.2  ------    0.0   0.0   0.0   0.0   ----- 
Wed 15:00  SSE  2/ 11  19.8  6.7  ------    0.0   0.0   0.0   0.0   ----- 
Wed 15:30    W  2/  7  19.3  6.7  ------    0.0   0.0   0.0   0.0   ----- 
Wed 16:00    W  2/  7  19.1  6.6  ------    0.0   0.0   0.0   0.0   ----- 
Wed 16:30    S  2/  7  20.0  6.5  ------    0.0   0.0   0.0   0.0   ----- 
Wed 17:00   NW  2/  9  18.7  6.0  ------    0.0   0.0   0.0   0.0   ----- 
Wed 17:30  WNW  2/  6  17.4  6.3  ------    0.0   0.0   0.0   0.0   ----- 
Wed 18:00    C  0/  2  14.7  6.1  ------    0.0   0.0   0.0   0.0   ----- 
Wed 18:30    C  0/  2  12.9  5.8  ------    0.0   0.0   0.0   0.0   ----- 
Wed 19:00  ENE  2/  4  11.8  5.2  ------    0.0   0.0   0.0   0.0   ----- 

MECKERING NORTH AG STATION

Site: 010GMN
Alt: 308.0m
28km NE of MECKERING


  Time     Wind        Temp  DP   Baro     Rain since   Rain past  Vis(m), Cloud(base in m), Weather
  local        km/h                         9am  last   hr   10m    
Wed 14:00    S  7/ 17  19.8  7.6  ------    0.0   0.0   0.0   0.0   ----- 
Wed 14:30    S  7/ 13  19.8  6.8  ------    0.0   0.0   0.0   0.0   ----- 
Wed 15:00    S  7/ 15  19.6  4.5  ------    0.0   0.0   0.0   0.0   ----- 
Wed 15:30  SSE  4/ 13  20.2  5.8  ------    0.0   0.0   0.0   0.0   ----- 
Wed 16:00    S  7/ 15  19.7  4.7  ------    0.0   0.0   0.0   0.0   ----- 
Wed 16:30    S  6/ 13  19.6  5.8  ------    0.0   0.0   0.0   0.0   ----- 
Wed 17:00    S  6/ 11  18.7  4.7  ------    0.0   0.0   0.0   0.0   ----- 
Wed 17:30    S  4/  9  17.7  5.6  ------    0.0   0.0   0.0   0.0   ----- 
Wed 18:00    S  2/  6  15.5  5.4  ------    0.0   0.0   0.0   0.0   ----- 
Wed 18:30  SSW  4/  6  14.0  5.1  ------    0.0   0.0   0.0   0.0   ----- 
Wed 19:00  SSW  4/  6  13.0  4.9  ------    0.0   0.0   0.0   0.0   ----- 

MUKINBUDIN AG STATION

Site: 010KBA
Alt: 310m
39km ESE of BENCUBBIN


  Time     Wind        Temp  DP   Baro     Rain since   Rain past  Vis(m), Cloud(base in m), Weather
  local        km/h                         9am  last   hr   10m    
Wed 14:00    S  7/ 19  21.1  5.1  ------    0.0   0.0   0.0   0.0   ----- 
Wed 14:30    S  6/ 17  21.8  4.8  ------    0.0   0.0   0.0   0.0   ----- 
Wed 15:00   SW  2/  7  22.5  4.9  ------    0.0   0.0   0.0   0.0   ----- 
Wed 15:00   SW  2/  7  22.5  4.9  ------    0.0   0.0  ----   0.0   ----- 
Wed 15:30  SSE  4/ 13  21.9  4.5  ------    0.0   0.0   0.0   0.0   ----- 
Wed 16:00  SSE  7/ 17  22.0  4.3  ------    0.0   0.0   0.0   0.0   ----- 
Wed 16:00  SSE  7/ 17  22.0  4.3  ------    0.0   0.0  ----   0.0   ----- 
Wed 16:30   SE  6/ 17  21.5  4.3  ------    0.0   0.0   0.0   0.0   ----- 
Wed 17:00   SE  4/ 11  21.1  4.0  ------    0.0   0.0   0.0   0.0   ----- 
Wed 17:00   SE  4/ 11  21.1  4.0  ------    0.0   0.0  ----   0.0   ----- 
Wed 17:30    S  6/ 13  20.9  3.8  ------    0.0   0.0   0.0   0.0   ----- 
Wed 18:00  SSE  4/  7  18.7  3.9  ------    0.0   0.0   0.0   0.0   ----- 
Wed 18:00  SSE  4/  7  18.7  3.9  ------    0.0   0.0  ----   0.0   ----- 
Wed 18:30  SSE  2/  6  16.3  3.6  ------    0.0   0.0   0.0   0.0   ----- 
Wed 19:00    C  0/  4  14.7  3.5  ------    0.0   0.0   0.0   0.0   ----- 

NAREMBEEN AG STATION

Site: 010RBA
Alt: 270m
5km SSE of NAREMBEEN


  Time     Wind        Temp  DP   Baro     Rain since   Rain past  Vis(m), Cloud(base in m), Weather
  local        km/h                         9am  last   hr   10m    
Wed 14:00    S  7/ 17  18.1  7.5  ------    0.0   0.0   0.0   0.0   ----- 
Wed 14:30    S  7/ 17  19.0  7.6  ------    0.0   0.0   0.0   0.0   ----- 
Wed 15:00    S  7/ 17  18.8  8.1  ------    0.0   0.0   0.0   0.0   ----- 
Wed 15:30    S  6/ 13  19.3  7.4  ------    0.0   0.0   0.0   0.0   ----- 
Wed 16:00    S  9/ 17  19.4  7.7  ------    0.0   0.0   0.0   0.0   ----- 
Wed 16:30    S  7/ 13  19.3  7.6  ------    0.0   0.0   0.0   0.0   ----- 
Wed 17:00    S  6/ 13  18.9  7.8  ------    0.0   0.0   0.0   0.0   ----- 
Wed 17:30  SSW  4/  7  18.2  7.7  ------    0.0   0.0   0.0   0.0   ----- 
Wed 18:00    S  2/  6  15.6  7.6  ------    0.0   0.0   0.0   0.0   ----- 
Wed 18:30    C  0/  0  14.1  7.3  ------    0.0   0.0   0.0   0.0   ----- 
Wed 19:00    C  0/  0  12.1  6.6  ------    0.0   0.0   0.0   0.0   ----- 

NARROGIN AG STATION

Site: 010GNA
Alt: 340m
10km W of NARROGIN


  Time     Wind        Temp  DP   Baro     Rain since   Rain past  Vis(m), Cloud(base in m), Weather
  local        km/h                         9am  last   hr   10m    
Wed 14:00    S  6/ 13  18.6  5.0  ------    0.0   0.0   0.0   0.0   ----- 
Wed 14:00    S  4/ 11  17.9  7.5  ------    0.0   0.0   0.0   0.0   ----- 
Wed 14:00   SW  6/ 13  17.8  7.9  ------    0.0   0.0   0.0   0.0   ----- 
Wed 14:30  SSE  4/ 11  19.2  5.5  ------    0.0   0.0   0.0   0.0   ----- 
Wed 14:30    W  4/ 13  18.7  7.3  ------    0.0   0.0   0.0   0.0   ----- 
Wed 14:30  WSW  4/ 11  18.6  7.8  ------    0.0   0.0   0.0   0.0   ----- 
Wed 15:00   SE  4/ 15  19.3  5.2  ------    0.0   0.0   0.0   0.0   ----- 
Wed 15:00  WSW  2/  9  18.2  7.3  ------    0.0   0.0   0.0   0.0   ----- 
Wed 15:00   SW  4/ 11  18.8  8.9  ------    0.0   0.0   0.0   0.0   ----- 
Wed 15:30    S  6/ 13  19.5  4.2  ------    0.0   0.0   0.0   0.0   ----- 
Wed 15:30    S  2/  9  18.9  7.0  ------    0.0   0.0   0.0   0.0   ----- 
Wed 15:30   SW  4/  7  19.2  7.5  ------    0.0   0.0   0.0   0.0   ----- 
Wed 16:00   SE  6/ 13  19.2  5.0  ------    0.0   0.0   0.0   0.0   ----- 
Wed 16:00   SE  4/  7  19.0  8.2  ------    0.0   0.0   0.0   0.0   ----- 
Wed 16:00  SSW  4/ 13  19.2  6.2  ------    0.0   0.0   0.0   0.0   ----- 
Wed 16:30    E  4/ 13  19.4  4.5  ------    0.0   0.0   0.0   0.0   ----- 
Wed 16:30  SSW  2/  7  18.8  8.0  ------    0.0   0.0   0.0   0.0   ----- 
Wed 16:30    W  4/ 11  18.7  7.2  ------    0.0   0.0   0.0   0.0   ----- 
Wed 17:00    S  4/  9  19.0  5.4  ------    0.0   0.0   0.0   0.0   ----- 
Wed 17:00   SW  4/  9  18.2  8.4  ------    0.0   0.0   0.0   0.0   ----- 
Wed 17:00  WSW  4/  7  18.5  7.4  ------    0.0   0.0   0.0   0.0   ----- 
Wed 17:30    S  2/  4  18.4  5.7  ------    0.0   0.0   0.0   0.0   ----- 
Wed 17:30  SSW  2/  4  17.5  9.1  ------    0.0   0.0   0.0   0.0   ----- 
Wed 17:30  WSW  6/  7  17.5  7.8  ------    0.0   0.0   0.0   0.0   ----- 
Wed 18:00   SE  2/  4  14.6  5.5  ------    0.0   0.0   0.0   0.0   ----- 
Wed 18:00    S  4/  7  14.2  8.3  ------    0.0   0.0   0.0   0.0   ----- 
Wed 18:00  WSW  2/  6  16.1  7.7  ------    0.0   0.0   0.0   0.0   ----- 
Wed 18:30    E  2/  6  12.0  4.8  ------    0.0   0.0   0.0   0.0   ----- 
Wed 18:30    S  6/  7  12.3  7.8  ------    0.0   0.0   0.0   0.0   ----- 
Wed 18:30  WNW  2/  4  14.8  7.5  ------    0.0   0.0   0.0   0.0   ----- 
Wed 19:00    E  4/  6   9.4  4.7  ------    0.0   0.0   0.0   0.0   ----- 
Wed 19:00  SSE  4/  7  10.3  7.3  ------    0.0   0.0   0.0   0.0   ----- 
Wed 19:00    W  2/  4  13.6  7.9  ------    0.0   0.0   0.0   0.0   ----- 

NEWDEGATE AG STATION

Site: 010GNE
Alt: m
km of


  Time     Wind        Temp  DP   Baro     Rain since   Rain past  Vis(m), Cloud(base in m), Weather
  local        km/h                         9am  last   hr   10m    
Wed 14:00    W  4/ 13  18.7  6.9  ------    0.0   0.0   0.0   0.0   ----- 
Wed 14:30    W  7/ 15  18.2  6.5  ------    0.0   0.0   0.0   0.0   ----- 
Wed 15:00    W  2/ 11  18.9  5.4  ------    0.0   0.0   0.0   0.0   ----- 
Wed 15:30   NW  4/  9  19.2  5.6  ------    0.0   0.0   0.0   0.0   ----- 
Wed 16:00  SSW  4/ 11  19.9  5.3  ------    0.0   0.0   0.0   0.0   ----- 
Wed 16:30    S  2/  7  20.0  4.6  ------    0.0   0.0   0.0   0.0   ----- 
Wed 17:00   SE  2/  7  18.8  5.0  ------    0.0   0.0   0.0   0.0   ----- 
Wed 17:30  SSE  2/  6  16.8  5.7  ------    0.0   0.0   0.0   0.0   ----- 
Wed 18:00    C  0/  2  12.7  5.6  ------    0.0   0.0   0.0   0.0   ----- 
Wed 18:30  WSW  4/  6   8.7  4.9  ------    0.0   0.0   0.0   0.0   ----- 
Wed 19:00    C  0/  2   8.0  4.6  ------    0.0   0.0   0.0   0.0   ----- 

NEWDEGATE RESEARCH STATION

Site: 010692
Alt: 320.0m
35km E of LAKE GRACE


  Time     Wind        Temp  DP   Baro     Rain since   Rain past  Vis(m), Cloud(base in m), Weather
  local        km/h                         9am  last   hr   10m    
Wed 14:00    W  7/ 13  17.6  6.5  1025.4    0.0   0.0   0.0   0.0   ----- 
Wed 14:30    W  9/ 15  17.9  6.1  1025.0    0.0   0.0   0.0   0.0   ----- 
Wed 15:00  WSW  4/  9  19.0  5.8  1024.8    0.0   0.0   0.0   0.0   ----- 
Wed 15:30  WNW  6/  9  18.9  5.7  1024.6    0.0   0.0   0.0   0.0   ----- 
Wed 16:00  SSW  6/ 11  18.8  5.6  1024.6    0.0   0.0   0.0   0.0   ----- 
Wed 16:30    S  4/  7  18.6  4.4  1024.6    0.0   0.0   0.0   0.0   ----- 
Wed 17:00  SSE  4/  7  18.0  4.6  1024.6    0.0   0.0   0.0   0.0   ----- 
Wed 17:30   SE  6/  7  16.2  5.2  1024.7    0.0   0.0   0.0   0.0   ----- 
Wed 18:00  ESE  4/  4  13.2  5.1  1024.8    0.0   0.0   0.0   0.0   ----- 
Wed 18:30    C  0/  0   8.3  2.8  1025.1    0.0   0.0   0.0   0.0   ----- 
Wed 19:00    W  4/  4   8.2  3.7  1025.3    0.0   0.0   0.0   0.0   ----- 

NORTHAM AG STATION

Site: 010GNO
Alt: m
km of


  Time     Wind        Temp  DP   Baro     Rain since   Rain past  Vis(m), Cloud(base in m), Weather
  local        km/h                         9am  last   hr   10m    
Wed 14:00   NW  4/  9  18.7  9.9  ------    0.0   0.0   0.0   0.0   ----- 
Wed 14:30    E  2/  7  19.1  8.9  ------    0.0   0.0   0.0   0.0   ----- 
Wed 15:00  SSE  2/  7  20.8  7.9  ------    0.0   0.0   0.0   0.0   ----- 
Wed 15:00  SSE  2/  7  20.8  7.9  ------    0.0   0.0  ----   0.0   ----- 
Wed 15:30    S  2/  7  21.3  7.8  ------    0.0   0.0   0.0   0.0   ----- 
Wed 16:00  SSE  2/  7  20.9  8.5  ------    0.0   0.0   0.0   0.0   ----- 
Wed 16:00  SSE  2/  7  20.9  8.5  ------    0.0   0.0  ----   0.0   ----- 
Wed 16:30  SSE  2/  7  21.0  6.1  ------    0.0   0.0   0.0   0.0   ----- 
Wed 17:00  SSE  4/  7  20.7  6.4  ------    0.0   0.0   0.0   0.0   ----- 
Wed 17:00  SSE  4/  7  20.7  6.4  ------    0.0   0.0  ----   0.0   ----- 
Wed 17:30   SE  2/  7  19.7  7.4  ------    0.0   0.0   0.0   0.0   ----- 
Wed 18:00    C  0/  4  18.0  7.1  ------    0.0   0.0   0.0   0.0   ----- 
Wed 18:00    C  0/  4  18.0  7.1  ------    0.0   0.0  ----   0.0   ----- 
Wed 18:30    C  0/  0  14.7  7.5  ------    0.0   0.0   0.0   0.0   ----- 
Wed 19:00    C  0/  0  13.4  8.1  ------    0.0   0.0   0.0   0.0   ----- 

NYABING AG STATION

Site: 010YBE
Alt: 360m
73km ENE of KATANNING


  Time     Wind        Temp  DP   Baro     Rain since   Rain past  Vis(m), Cloud(base in m), Weather
  local        km/h                         9am  last   hr   10m    
Wed 14:00    S  7/ 19  18.0  5.2  ------    0.0   0.0   0.0   0.0   ----- 
Wed 14:30   SW  6/ 15  18.4  5.5  ------    0.0   0.0   0.0   0.0   ----- 
Wed 15:00  WSW  7/ 13  18.8  5.1  ------    0.0   0.0   0.0   0.0   ----- 
Wed 15:30  WSW  7/ 13  19.0  4.9  ------    0.0   0.0   0.0   0.0   ----- 
Wed 16:00  SSW  6/ 13  19.4  4.3  ------    0.0   0.0   0.0   0.0   ----- 
Wed 16:30   SW  2/  9  19.3  4.8  ------    0.0   0.0   0.0   0.0   ----- 
Wed 17:00   SW  4/  9  18.9  4.4  ------    0.0   0.0   0.0   0.0   ----- 
Wed 17:30   SW  4/  6  18.1  4.9  ------    0.0   0.0   0.0   0.0   ----- 
Wed 18:00  WSW  2/  6  13.4  6.4  ------    0.0   0.0   0.0   0.0   ----- 
Wed 18:30  WSW  4/  6   9.8  4.9  ------    0.0   0.0   0.0   0.0   ----- 
Wed 19:00  WSW  2/  6   7.8  4.3  ------    0.0   0.0   0.0   0.0   ----- 

ONGERUP NORTH AG STATION

Site: 010GPW
Alt: 280m
16km N of ONGERUP


  Time     Wind        Temp  DP   Baro     Rain since   Rain past  Vis(m), Cloud(base in m), Weather
  local        km/h                         9am  last   hr   10m    
Wed 14:00    W  6/ 15  18.7  6.3  ------    0.0   0.0   0.0   0.0   ----- 
Wed 14:30  WSW  4/ 13  19.4  6.0  ------    0.0   0.0   0.0   0.0   ----- 
Wed 15:00    W  6/ 13  19.5  6.0  ------    0.0   0.0   0.0   0.0   ----- 
Wed 15:30   SW  6/  9  20.0  4.9  ------    0.0   0.0   0.0   0.0   ----- 
Wed 16:00   SW  4/  7  19.8  5.1  ------    0.0   0.0   0.0   0.0   ----- 
Wed 16:30   SW  4/  9  19.3  5.0  ------    0.0   0.0   0.0   0.0   ----- 
Wed 17:00  WSW  4/  7  18.7  5.8  ------    0.0   0.0   0.0   0.0   ----- 
Wed 17:30    W  6/  9  17.5  5.4  ------    0.0   0.0   0.0   0.0   ----- 
Wed 18:00    W  2/  6  15.6  6.5  ------    0.0   0.0   0.0   0.0   ----- 
Wed 18:30    C  0/  2  14.3  6.7  ------    0.0   0.0   0.0   0.0   ----- 
Wed 19:00  SSE  6/ 17  11.4  7.5  ------    0.0   0.0   0.0   0.0   ----- 

POPANYINNING AG STATION

Site: 010YNG
Alt: 310m
13km S of PINGELLY


  Time     Wind        Temp  DP   Baro     Rain since   Rain past  Vis(m), Cloud(base in m), Weather
  local        km/h                         9am  last   hr   10m    
Wed 14:00  ENE  2/  6  18.1  6.2  ------    0.0   0.0   0.0   0.0   ----- 
Wed 14:30   NW  4/ 13  18.3  7.4  ------    0.0   0.0   0.0   0.0   ----- 
Wed 15:00   NW  2/  7  18.5  7.5  ------    0.0   0.0   0.0   0.0   ----- 
Wed 15:30    W  2/  7  19.1  6.9  ------    0.0   0.0   0.0   0.0   ----- 
Wed 16:00    E  2/  6  19.0  6.7  ------    0.0   0.0   0.0   0.0   ----- 
Wed 16:30  NNE  4/  7  18.7  7.2  ------    0.0   0.0   0.0   0.0   ----- 
Wed 17:00    C  0/  4  19.2  7.3  ------    0.0   0.0   0.0   0.0   ----- 
Wed 17:00    C  0/  4  19.2  7.3  ------    0.0   0.0  ----   0.0   ----- 
Wed 17:30   NW  2/  4  17.4  8.4  ------    0.0   0.0   0.0   0.0   ----- 
Wed 18:00  WSW  2/  4  16.3  6.8  ------    0.0   0.0   0.0   0.0   ----- 
Wed 18:00  WSW  2/  4  16.3  6.8  ------    0.0   0.0  ----   0.0   ----- 
Wed 18:30   SW  4/  6  15.5  7.2  ------    0.0   0.0   0.0   0.0   ----- 
Wed 19:00   SW  6/  7  13.9  7.6  ------    0.0   0.0   0.0   0.0   ----- 

QUALEUP AG STATION

Site: 010LUP
Alt: 290m
66km E of BRIDGETOWN


  Time     Wind        Temp  DP   Baro     Rain since   Rain past  Vis(m), Cloud(base in m), Weather
  local        km/h                         9am  last   hr   10m    
Wed 14:00    W  6/  9  17.0  9.8  ------    0.0   0.0   0.0   0.0   ----- 
Wed 14:30   NW  4/  9  17.4  9.8  ------    0.0   0.0   0.0   0.0   ----- 
Wed 15:00    W  4/  9  17.7  9.3  ------    0.0   0.0   0.0   0.0   ----- 
Wed 15:30  WSW  2/  7  18.6  9.7  ------    0.0   0.0   0.0   0.0   ----- 
Wed 16:00  WNW  4/  9  18.0 10.3  ------    0.0   0.0   0.0   0.0   ----- 
Wed 16:30  WNW  2/  7  18.0 10.3  ------    0.0   0.0   0.0   0.0   ----- 
Wed 17:00    C  0/  4  18.4 10.0  ------    0.0   0.0   0.0   0.0   ----- 
Wed 17:30    C  0/  4  17.1 10.4  ------    0.0   0.0   0.0   0.0   ----- 
Wed 18:00    C  0/  0  14.2  9.4  ------    0.0   0.0   0.0   0.0   ----- 
Wed 18:30    C  0/  2  13.5  9.2  ------    0.0   0.0   0.0   0.0   ----- 
Wed 19:00    C  0/  0  13.4  9.2  ------    0.0   0.0   0.0   0.0   ----- 

RAVENSTHORPE AG STATION

Site: 010GRA
Alt: m
34km WNW of RAVENSTHORPE


  Time     Wind        Temp  DP   Baro     Rain since   Rain past  Vis(m), Cloud(base in m), Weather
  local        km/h                         9am  last   hr   10m    
Wed 14:00    S  7/ 13  19.3  6.7  ------    0.0   0.0   0.0   0.0   ----- 
Wed 14:30    W  6/ 13  20.2  6.5  ------    0.0   0.0   0.0   0.0   ----- 
Wed 15:00    S  6/ 15  20.7  6.4  ------    0.0   0.0   0.0   0.0   ----- 
Wed 15:30    S 13/ 17  20.5  6.0  ------    0.0   0.0   0.0   0.0   ----- 
Wed 16:00  SSE  6/ 13  20.4  5.8  ------    0.0   0.0   0.0   0.0   ----- 
Wed 16:30    S  7/ 13  20.1  5.3  ------    0.0   0.0   0.0   0.0   ----- 
Wed 17:00  SSW  7/ 11  19.0  5.2  ------    0.0   0.0   0.0   0.0   ----- 
Wed 17:30  SSW  9/ 11  17.5  6.0  ------    0.0   0.0   0.0   0.0   ----- 
Wed 18:00   SE 13/ 19  14.1  8.7  ------    0.0   0.0   0.0   0.0   ----- 
Wed 18:30   SE  7/ 11  11.6  8.3  ------    0.0   0.0   0.0   0.0   ----- 
Wed 19:00   SE  7/ 11   9.5  7.3  ------    0.0   0.0   0.0   0.0   ----- 

SHACKLETON AG STATION

Site: 010HKN
Alt: 290m
37km SSE of KELLERBERRIN


  Time     Wind        Temp  DP   Baro     Rain since   Rain past  Vis(m), Cloud(base in m), Weather
  local        km/h                         9am  last   hr   10m    
Wed 14:00   SE  6/ 17  19.9  5.6  ------    0.0   0.0   0.0   0.0   ----- 
Wed 14:30    S  6/ 17  20.2  5.9  ------    0.0   0.0   0.0   0.0   ----- 
Wed 15:00    S  7/ 15  20.6  5.1  ------    0.0   0.0   0.0   0.0   ----- 
Wed 15:30  SSW  7/ 17  19.9  4.8  ------    0.0   0.0   0.0   0.0   ----- 
Wed 16:00   SE  7/ 17  20.4  4.0  ------    0.0   0.0   0.0   0.0   ----- 
Wed 16:30    S  6/ 11  20.2  3.7  ------    0.0   0.0   0.0   0.0   ----- 
Wed 17:00   SE  6/ 15  19.0  4.1  ------    0.0   0.0   0.0   0.0   ----- 
Wed 17:30   SE  4/  7  17.8  5.1  ------    0.0   0.0   0.0   0.0   ----- 
Wed 18:00  SSE  2/  4  14.4  5.4  ------    0.0   0.0   0.0   0.0   ----- 
Wed 18:30    S  4/  6  11.8  4.9  ------    0.0   0.0   0.0   0.0   ----- 
Wed 19:00    S  6/  7  10.5  5.0  ------    0.0   0.0   0.0   0.0   ----- 

STIRLINGS NORTH AG STATION

Site: 010LGS
Alt: 230m
50km NNE of MOUNT BARKER


  Time     Wind        Temp  DP   Baro     Rain since   Rain past  Vis(m), Cloud(base in m), Weather
  local        km/h                         9am  last   hr   10m    
Wed 14:00    W  9/ 19  16.9  9.6  ------    0.0   0.0   0.0   0.0   ----- 
Wed 14:30    W  9/ 19  17.5  8.7  ------    0.0   0.0   0.0   0.0   ----- 
Wed 15:00    W  9/ 19  18.0  9.6  ------    0.0   0.0   0.0   0.0   ----- 
Wed 15:30    W  7/ 15  18.1  8.3  ------    0.0   0.0   0.0   0.0   ----- 
Wed 16:00  WNW  9/ 15  18.2  8.6  ------    0.0   0.0   0.0   0.0   ----- 
Wed 16:30  WNW  7/ 15  18.3  8.7  ------    0.0   0.0   0.0   0.0   ----- 
Wed 17:00  WNW  9/ 15  18.0  8.9  ------    0.0   0.0   0.0   0.0   ----- 
Wed 17:30    W  7/ 13  16.6  9.0  ------    0.0   0.0   0.0   0.0   ----- 
Wed 18:00    W  4/  6  14.4  8.6  ------    0.0   0.0   0.0   0.0   ----- 
Wed 18:30   NW  2/  4  13.5  8.3  ------    0.0   0.0   0.0   0.0   ----- 
Wed 19:00  NNW  2/  4  13.0  8.3  ------    0.0   0.0   0.0   0.0   ----- 

TRAYNING WEST AG STATION

Site: 010RNW
Alt: 290m
66km NW of MERREDIN


  Time     Wind        Temp  DP   Baro     Rain since   Rain past  Vis(m), Cloud(base in m), Weather
  local        km/h                         9am  last   hr   10m    
Wed 14:00   SE  7/ 17  21.1  5.2  ------    0.0   0.0   0.0   0.0   ----- 
Wed 14:30   SE  9/ 17  21.7  5.1  ------    0.0   0.0   0.0   0.0   ----- 
Wed 15:00   SE  7/ 19  21.7  5.2  ------    0.0   0.0   0.0   0.0   ----- 
Wed 15:30    S  7/ 15  22.0  4.9  ------    0.0   0.0   0.0   0.0   ----- 
Wed 16:00    S  9/ 15  21.9  4.6  ------    0.0   0.0   0.0   0.0   ----- 
Wed 16:30    S  9/ 17  21.4  4.7  ------    0.0   0.0   0.0   0.0   ----- 
Wed 17:00    S  6/ 15  20.8  4.8  ------    0.0   0.0   0.0   0.0   ----- 
Wed 17:30    S  7/ 11  19.4  5.5  ------    0.0   0.0   0.0   0.0   ----- 
Wed 18:00    S  4/  7  15.9  5.5  ------    0.0   0.0   0.0   0.0   ----- 
Wed 18:30    S  2/  6  13.2  5.8  ------    0.0   0.0   0.0   0.0   ----- 
Wed 19:00    S  4/  6  13.1  5.4  ------    0.0   0.0   0.0   0.0   ----- 

TUNNEY AG STATION

Site: 010NNY
Alt: 250m
35km SE of KOJONUP


  Time     Wind        Temp  DP   Baro     Rain since   Rain past  Vis(m), Cloud(base in m), Weather
  local        km/h                         9am  last   hr   10m    
Wed 14:00  SSW  4/ 11  17.8  9.6  ------    0.2   0.0   0.0   0.0   ----- 
Wed 14:30   SW  4/ 11  18.3  8.4  ------    0.2   0.0   0.0   0.0   ----- 
Wed 15:00  SSW  4/ 11  17.7  7.6  ------    0.2   0.0   0.0   0.0   ----- 
Wed 15:30  SSW  2/  7  18.9  8.1  ------    0.2   0.0   0.0   0.0   ----- 
Wed 16:00   SW  4/ 13  18.4  7.4  ------    0.2   0.0   0.0   0.0   ----- 
Wed 16:30  WSW  4/  9  18.5  8.1  ------    0.2   0.0   0.0   0.0   ----- 
Wed 17:00  WSW  4/  7  18.0  7.8  ------    0.2   0.0   0.0   0.0   ----- 
Wed 17:30    C  0/  6  17.7  7.4  ------    0.2   0.0   0.0   0.0   ----- 
Wed 18:00    C  0/  0  14.8  7.9  ------    0.2   0.0   0.0   0.0   ----- 
Wed 18:30    C  0/  4  11.9  7.7  ------    0.2   0.0   0.0   0.0   ----- 
Wed 19:00    C  0/  2  10.4  7.2  ------    0.2   0.0   0.0   0.0   ----- 

WANDERING

Site: 010917
Alt: 275.0m
56km WNW of NARROGIN


  Time     Wind        Temp  DP   Baro     Rain since   Rain past  Vis(m), Cloud(base in m), Weather
  local        km/h                         9am  last   hr   10m    
Wed 14:00   SE  9/ 15  17.1  7.5  ------    0.0   0.0   0.0   0.0   ----- 
Wed 15:00  ESE  7/ 13  18.1  5.7  ------    0.0   0.0   0.0   0.0   ----- 
Wed 16:00   SE  7/ 13  18.0  7.1  ------    0.0   0.0   0.0   0.0   ----- 
Wed 17:00   SE  7/  9  17.1  8.5  ------    0.0   0.0   0.0   0.0   ----- 
Wed 18:00   SW  4/  7  13.8  8.4  ------    0.0   0.0   0.0   0.0   ----- 
Wed 19:00    C  0/  0  10.0  7.3  ------    0.0   0.0   0.0   0.0   ----- 

WICKEPIN AG STATION

Site: 010GWI
Alt: 339.0m
56km E of NARROGIN


  Time     Wind        Temp  DP   Baro     Rain since   Rain past  Vis(m), Cloud(base in m), Weather
  local        km/h                         9am  last   hr   10m    
Wed 14:00  SSE  7/ 15  18.6  6.4  ------    0.0   0.0   0.0   0.0   ----- 
Wed 14:30    N  6/ 13  18.7  6.0  ------    0.0   0.0   0.0   0.0   ----- 
Wed 15:00  WNW  2/  7  20.1  5.8  ------    0.0   0.0   0.0   0.0   ----- 
Wed 15:30  SSW  2/  7  20.8  5.6  ------    0.0   0.0   0.0   0.0   ----- 
Wed 16:00   SE  4/ 11  20.0  5.5  ------    0.0   0.0   0.0   0.0   ----- 
Wed 16:30   SE  6/ 13  19.8  5.9  ------    0.0   0.0   0.0   0.0   ----- 
Wed 17:00  SSW  2/  9  19.1  6.3  ------    0.0   0.0   0.0   0.0   ----- 
Wed 17:30    S  4/  9  17.9  5.9  ------    0.0   0.0   0.0   0.0   ----- 
Wed 18:00    S  2/  7  16.3  5.7  ------    0.0   0.0   0.0   0.0   ----- 
Wed 18:30    S  2/  4  14.4  6.0  ------    0.0   0.0   0.0   0.0   ----- 
Wed 19:00    C  0/  2  12.3  6.2  ------    0.0   0.0   0.0   0.0   ----- 

WICKEPIN EAST AG STATION

Site: 010GEW
Alt: 334 m
88km ENE of NARROGIN


  Time     Wind        Temp  DP   Baro     Rain since   Rain past  Vis(m), Cloud(base in m), Weather
  local        km/h                         9am  last   hr   10m    
Wed 14:00   SE  6/ 17  17.8  5.8  ------    0.0   0.0   0.0   0.0   ----- 
Wed 14:30  ESE  6/ 15  17.8  6.0  ------    0.0   0.0   0.0   0.0   ----- 
Wed 15:00   SW  4/ 13  18.6  5.7  ------    0.0   0.0   0.0   0.0   ----- 
Wed 15:00   SW  4/ 13  18.6  5.7  ------    0.0   0.0  ----   0.0   ----- 
Wed 15:30  SSE  6/ 13  18.9  5.4  ------    0.0   0.0   0.0   0.0   ----- 
Wed 16:00    N  2/  7  19.8  4.7  ------    0.0   0.0   0.0   0.0   ----- 
Wed 16:00    N  2/  7  19.8  4.7  ------    0.0   0.0  ----   0.0   ----- 
Wed 16:30  SSE  6/  9  19.3  4.9  ------    0.0   0.0   0.0   0.0   ----- 
Wed 17:00    S  4/  7  19.3  6.0  ------    0.0   0.0   0.0   0.0   ----- 
Wed 17:00    S  4/  7  19.3  6.0  ------    0.0   0.0  ----   0.0   ----- 
Wed 17:30    S  2/  6  18.1  6.7  ------    0.0   0.0   0.0   0.0   ----- 
Wed 18:00    C  0/  0  16.0  5.3  ------    0.0   0.0   0.0   0.0   ----- 
Wed 18:00    C  0/  0  16.0  5.3  ------    0.0   0.0  ----   0.0   ----- 
Wed 18:30   SW  2/  6  15.3  5.4  ------    0.0   0.0   0.0   0.0   ----- 
Wed 19:00   SW  2/  4  14.1  6.2  ------    0.0   0.0   0.0   0.0   -----